createdAt,value
2019-03-31T00:02:03.290Z,73.03
2019-03-31T00:04:32.794Z,74.00
2019-03-31T00:07:02.253Z,68.70
2019-03-31T00:09:31.421Z,62.13
2019-03-31T00:12:01.727Z,61.80
2019-03-31T00:14:31.177Z,59.53
2019-03-31T00:17:00.426Z,59.20
2019-03-31T00:19:35.559Z,58.33
2019-03-31T00:22:05.320Z,58.53
2019-03-31T00:24:34.526Z,59.17
2019-03-31T00:27:05.737Z,58.17
2019-03-31T00:29:35.187Z,56.33
2019-03-31T00:32:04.601Z,56.93
2019-03-31T00:34:35.065Z,56.03
2019-03-31T00:37:07.503Z,56.63
2019-03-31T00:39:35.657Z,55.50
2019-03-31T00:42:06.092Z,54.13
2019-03-31T00:44:35.503Z,56.40
2019-03-31T00:47:12.115Z,55.53
2019-03-31T00:49:41.464Z,54.37
2019-03-31T00:52:20.021Z,55.93
2019-03-31T00:54:49.560Z,54.40
2019-03-31T00:57:18.991Z,53.03
2019-03-31T00:59:48.541Z,54.90
2019-03-31T01:02:19.705Z,54.50
2019-03-31T01:04:50.033Z,54.37
2019-03-31T01:07:19.852Z,54.20
2019-03-31T01:09:49.446Z,52.03
2019-03-31T01:12:21.596Z,53.67
2019-03-31T01:14:52.135Z,52.57
2019-03-31T01:17:22.023Z,53.73
2019-03-31T01:19:53.009Z,50.73
2019-03-31T01:22:22.275Z,52.83
2019-03-31T01:24:51.819Z,50.97
2019-03-31T01:27:21.528Z,53.63
2019-03-31T01:29:52.407Z,51.60
2019-03-31T01:32:22.891Z,54.77
2019-03-31T01:34:52.228Z,53.00
2019-03-31T01:37:21.761Z,51.13
2019-03-31T01:39:51.370Z,52.20
2019-03-31T01:42:20.877Z,51.50
2019-03-31T01:44:50.350Z,53.33
2019-03-31T01:47:19.651Z,53.97
2019-03-31T01:49:55.067Z,52.57
2019-03-31T01:52:24.522Z,51.87
2019-03-31T01:54:53.996Z,52.80
2019-03-31T01:57:24.334Z,52.53
2019-03-31T01:59:54.033Z,54.23
2019-03-31T02:02:28.102Z,53.97
2019-03-31T02:04:57.749Z,53.53
2019-03-31T02:07:28.113Z,54.50
2019-03-31T02:09:57.591Z,53.00
2019-03-31T02:12:27.087Z,53.67
2019-03-31T02:14:56.369Z,51.43
2019-03-31T02:17:25.699Z,51.10
2019-03-31T02:19:56.289Z,50.07
2019-03-31T02:22:25.563Z,51.23
2019-03-31T02:24:55.024Z,50.50
2019-03-31T02:27:24.197Z,49.33
2019-03-31T02:29:53.673Z,49.90
2019-03-31T02:32:24.652Z,50.50
2019-03-31T02:34:54.319Z,51.87
2019-03-31T02:37:25.326Z,49.67
2019-03-31T02:39:55.756Z,49.70
2019-03-31T02:42:31.015Z,49.80
2019-03-31T02:45:00.751Z,50.97
2019-03-31T02:47:30.081Z,50.70
2019-03-31T02:49:59.541Z,50.33
2019-03-31T02:52:28.770Z,50.47
2019-03-31T02:54:58.774Z,49.10
2019-03-31T02:57:28.910Z,48.90
2019-03-31T02:59:59.981Z,48.63
2019-03-31T03:02:41.384Z,49.43
2019-03-31T03:05:18.798Z,50.57
2019-03-31T03:07:37.672Z,49.67
2019-03-31T03:10:07.568Z,49.60
2019-03-31T03:12:39.878Z,49.87
2019-03-31T03:15:09.758Z,48.33
2019-03-31T03:17:39.211Z,47.70
2019-03-31T03:20:09.993Z,49.40
2019-03-31T03:22:39.462Z,46.43
2019-03-31T03:25:09.351Z,46.97
2019-03-31T03:27:38.932Z,47.67
2019-03-31T03:30:08.848Z,47.70
2019-03-31T03:32:38.291Z,48.67
2019-03-31T03:35:07.726Z,47.60
2019-03-31T03:37:36.958Z,46.07
2019-03-31T03:40:07.547Z,46.40
2019-03-31T03:42:37.067Z,46.57
2019-03-31T03:45:07.373Z,46.67
2019-03-31T03:47:36.606Z,47.83
2019-03-31T03:50:07.620Z,47.37
2019-03-31T03:52:36.786Z,47.40
2019-03-31T03:55:06.015Z,46.73
2019-03-31T03:57:35.515Z,47.00
2019-03-31T04:00:06.871Z,46.87
2019-03-31T04:02:36.059Z,45.53
2019-03-31T04:05:06.400Z,48.50
2019-03-31T04:07:35.612Z,45.57
2019-03-31T04:10:08.042Z,48.30
2019-03-31T04:12:37.392Z,46.23
2019-03-31T04:15:06.925Z,46.00
2019-03-31T04:17:37.182Z,46.77
2019-03-31T04:20:17.855Z,47.30
2019-03-31T04:22:49.323Z,46.77
2019-03-31T04:25:18.802Z,48.10
2019-03-31T04:27:48.012Z,45.87
2019-03-31T04:30:17.408Z,46.97
2019-03-31T04:32:46.574Z,44.80
2019-03-31T04:35:16.044Z,46.53
2019-03-31T04:37:45.554Z,45.40
2019-03-31T04:40:15.024Z,45.87
2019-03-31T04:42:45.587Z,46.47
2019-03-31T04:45:15.245Z,47.07
2019-03-31T04:47:44.406Z,46.10
2019-03-31T04:50:14.023Z,46.70
2019-03-31T04:52:43.354Z,46.13
2019-03-31T04:55:12.678Z,45.23
2019-03-31T04:57:42.018Z,45.27
2019-03-31T05:00:11.547Z,45.57
2019-03-31T05:02:40.983Z,47.37
2019-03-31T05:05:10.392Z,44.77
2019-03-31T05:07:39.590Z,46.87
2019-03-31T05:10:09.155Z,45.20
2019-03-31T05:12:38.655Z,44.03
2019-03-31T05:15:08.435Z,46.30
2019-03-31T05:17:37.597Z,44.10
2019-03-31T05:20:06.860Z,46.47
2019-03-31T05:22:36.203Z,45.23
2019-03-31T05:25:06.510Z,46.83
2019-03-31T05:27:36.075Z,45.67
2019-03-31T05:30:06.765Z,47.57
2019-03-31T05:32:35.922Z,45.53
2019-03-31T05:35:07.073Z,46.63
2019-03-31T05:37:49.936Z,45.27
2019-03-31T05:40:07.830Z,45.30
2019-03-31T05:42:37.214Z,44.73
2019-03-31T05:45:07.334Z,45.63
2019-03-31T05:47:36.573Z,45.63
2019-03-31T05:50:06.863Z,45.87
2019-03-31T05:52:36.036Z,45.27
2019-03-31T05:55:07.059Z,45.27
2019-03-31T05:57:36.302Z,44.90
2019-03-31T06:00:07.767Z,45.90
2019-03-31T06:02:36.933Z,44.80
2019-03-31T06:05:07.116Z,45.63
2019-03-31T06:07:36.719Z,45.07
2019-03-31T06:10:07.415Z,44.23
2019-03-31T06:12:36.990Z,44.47
2019-03-31T06:15:06.904Z,43.80
2019-03-31T06:17:36.393Z,44.90
2019-03-31T06:20:07.189Z,45.50
2019-03-31T06:22:36.620Z,44.90
2019-03-31T06:25:06.867Z,42.43
2019-03-31T06:27:36.106Z,45.10
2019-03-31T06:30:08.778Z,44.43
2019-03-31T06:32:38.321Z,42.70
2019-03-31T06:35:07.689Z,44.27
2019-03-31T06:37:37.075Z,42.83
2019-03-31T06:40:06.839Z,43.10
2019-03-31T06:42:36.137Z,42.23
2019-03-31T06:45:07.483Z,42.63
2019-03-31T06:47:36.646Z,40.73
2019-03-31T06:50:08.574Z,39.70
2019-03-31T06:52:37.728Z,37.73
2019-03-31T06:55:07.993Z,38.53
2019-03-31T06:57:41.096Z,38.53
2019-03-31T07:00:10.842Z,37.60
2019-03-31T07:02:40.245Z,37.07
2019-03-31T07:05:10.246Z,35.47
2019-03-31T07:07:39.592Z,35.30
2019-03-31T07:10:08.986Z,37.43
2019-03-31T07:12:38.419Z,35.47
2019-03-31T07:15:10.057Z,35.97
2019-03-31T07:17:39.563Z,36.23
2019-03-31T07:20:12.089Z,35.47
2019-03-31T07:22:41.543Z,35.63
2019-03-31T07:25:12.236Z,34.90
2019-03-31T07:27:41.522Z,36.37
2019-03-31T07:30:19.599Z,34.60
2019-03-31T07:32:49.102Z,34.80
2019-03-31T07:35:20.364Z,33.63
2019-03-31T07:37:49.634Z,34.00
2019-03-31T07:40:21.829Z,33.20
2019-03-31T07:42:51.693Z,32.57
2019-03-31T07:45:21.155Z,35.10
2019-03-31T07:47:50.695Z,32.67
2019-03-31T07:50:20.395Z,32.23
2019-03-31T07:52:49.561Z,32.33
2019-03-31T07:55:20.699Z,31.27
2019-03-31T07:57:49.867Z,31.83
2019-03-31T08:00:23.800Z,32.77
2019-03-31T08:02:53.014Z,32.40
2019-03-31T08:05:32.924Z,31.90
2019-03-31T08:07:55.161Z,31.47
2019-03-31T08:10:24.526Z,31.10
2019-03-31T08:12:53.687Z,30.83
2019-03-31T08:15:22.854Z,31.37
2019-03-31T08:17:52.063Z,31.50
2019-03-31T08:20:21.712Z,32.07
2019-03-31T08:22:50.954Z,31.77
2019-03-31T08:25:20.907Z,29.40
2019-03-31T08:27:50.061Z,31.30
2019-03-31T08:30:20.262Z,31.83
2019-03-31T08:32:49.548Z,32.20
2019-03-31T08:35:18.770Z,31.43
2019-03-31T08:37:48.418Z,30.93
2019-03-31T08:40:17.859Z,31.57
2019-03-31T08:42:47.024Z,31.37
2019-03-31T08:45:16.182Z,31.03
2019-03-31T08:47:45.391Z,32.57
2019-03-31T08:50:15.497Z,31.07
2019-03-31T08:52:44.732Z,32.17
2019-03-31T08:55:14.597Z,30.30
2019-03-31T08:57:44.026Z,30.47
2019-03-31T09:00:29.072Z,30.07
2019-03-31T09:02:58.235Z,30.00
2019-03-31T09:05:27.395Z,31.17
2019-03-31T09:07:56.577Z,32.43
2019-03-31T09:10:25.739Z,30.50
2019-03-31T09:12:54.903Z,29.10
2019-03-31T09:15:24.198Z,30.70
2019-03-31T09:17:54.433Z,29.13
2019-03-31T09:20:24.247Z,29.33
2019-03-31T09:22:53.450Z,28.77
2019-03-31T09:25:22.767Z,28.37
2019-03-31T09:27:51.944Z,28.27
2019-03-31T09:30:21.206Z,30.43
2019-03-31T09:32:50.368Z,30.90
2019-03-31T09:35:20.162Z,29.87
2019-03-31T09:37:49.570Z,29.37
2019-03-31T09:40:18.911Z,28.67
2019-03-31T09:42:48.084Z,30.20
2019-03-31T09:45:18.545Z,30.00
2019-03-31T09:47:53.818Z,29.93
2019-03-31T09:50:23.347Z,30.33
2019-03-31T09:52:52.524Z,28.77
2019-03-31T09:55:23.147Z,29.90
2019-03-31T09:57:52.915Z,29.73
2019-03-31T10:00:44.694Z,29.50
2019-03-31T10:03:15.088Z,29.37
2019-03-31T10:05:47.775Z,27.63
2019-03-31T10:08:16.913Z,29.40
2019-03-31T10:10:46.184Z,29.67
2019-03-31T10:13:15.503Z,28.13
2019-03-31T10:15:45.817Z,27.73
2019-03-31T10:18:18.007Z,27.90
2019-03-31T10:20:46.066Z,28.73
2019-03-31T10:23:15.223Z,28.63
2019-03-31T10:25:44.707Z,29.77
2019-03-31T10:28:14.170Z,29.53
2019-03-31T10:30:43.404Z,30.20
2019-03-31T10:33:12.832Z,29.20
2019-03-31T10:35:42.285Z,31.47
2019-03-31T10:38:13.047Z,31.43
2019-03-31T10:40:42.567Z,30.37
2019-03-31T10:43:12.105Z,30.50
2019-03-31T10:45:41.563Z,28.80
2019-03-31T10:48:20.202Z,30.17
2019-03-31T10:50:42.169Z,29.93
2019-03-31T10:53:11.567Z,29.50
2019-03-31T10:55:40.839Z,29.43
2019-03-31T10:58:10.523Z,29.30
2019-03-31T11:00:39.853Z,30.00
2019-03-31T11:03:11.123Z,29.77
2019-03-31T11:05:40.519Z,29.90
2019-03-31T11:08:10.222Z,30.20
2019-03-31T11:10:39.718Z,30.27
2019-03-31T11:13:10.428Z,30.47
2019-03-31T11:15:42.679Z,29.10
2019-03-31T11:18:12.919Z,29.13
2019-03-31T11:20:42.392Z,29.60
2019-03-31T11:23:22.211Z,30.53
2019-03-31T11:25:51.659Z,29.13
2019-03-31T11:28:20.824Z,29.77
2019-03-31T11:30:50.298Z,29.60
2019-03-31T11:33:19.737Z,30.03
2019-03-31T11:35:48.907Z,30.07
2019-03-31T11:38:18.387Z,28.60
2019-03-31T11:40:47.855Z,29.73
2019-03-31T11:43:17.356Z,29.97
2019-03-31T11:45:46.572Z,30.00
2019-03-31T11:48:15.985Z,30.00
2019-03-31T11:50:45.487Z,27.77
2019-03-31T11:53:14.701Z,27.50
2019-03-31T11:55:43.853Z,28.70
2019-03-31T11:58:13.269Z,30.13
2019-03-31T12:00:48.939Z,29.07
2019-03-31T12:03:19.134Z,27.90
2019-03-31T12:05:48.290Z,27.13
2019-03-31T12:08:17.790Z,26.53
2019-03-31T12:10:47.238Z,26.53
2019-03-31T12:13:16.399Z,28.70
2019-03-31T12:15:45.904Z,29.40
2019-03-31T12:18:15.367Z,28.70
2019-03-31T12:20:44.522Z,29.53
2019-03-31T12:23:14.004Z,29.07
2019-03-31T12:25:43.169Z,30.73
2019-03-31T12:28:13.783Z,31.50
2019-03-31T12:30:42.982Z,30.30
2019-03-31T12:33:12.439Z,29.17
2019-03-31T12:35:41.900Z,29.33
2019-03-31T12:38:12.785Z,29.87
2019-03-31T12:40:42.129Z,27.93
2019-03-31T12:43:11.569Z,28.83
2019-03-31T12:45:43.211Z,28.13
2019-03-31T12:48:12.030Z,28.27
2019-03-31T12:50:41.419Z,27.07
2019-03-31T12:53:11.001Z,27.43
2019-03-31T12:55:40.461Z,27.63
2019-03-31T12:58:10.207Z,27.27
2019-03-31T13:00:39.423Z,27.60
2019-03-31T13:03:08.915Z,26.63
2019-03-31T13:05:38.162Z,27.57
2019-03-31T13:08:07.564Z,27.20
2019-03-31T13:10:37.010Z,27.03
2019-03-31T13:13:06.601Z,27.60
2019-03-31T13:15:36.081Z,26.40
2019-03-31T13:18:05.536Z,25.93
2019-03-31T13:20:34.761Z,26.00
2019-03-31T13:23:04.257Z,25.97
2019-03-31T13:25:40.603Z,27.03
2019-03-31T13:28:11.181Z,27.33
2019-03-31T13:30:40.425Z,26.50
2019-03-31T13:33:09.877Z,26.73
2019-03-31T13:35:39.139Z,27.00
2019-03-31T13:38:11.292Z,27.00
2019-03-31T13:40:39.687Z,25.63
2019-03-31T13:43:08.904Z,25.00
2019-03-31T13:45:38.284Z,26.77
2019-03-31T13:48:07.778Z,25.43
2019-03-31T13:50:37.163Z,25.20
2019-03-31T13:53:06.426Z,24.80
2019-03-31T13:55:35.968Z,22.67
2019-03-31T13:58:08.210Z,20.80
2019-03-31T14:00:40.772Z,20.20
2019-03-31T14:03:10.401Z,20.87
2019-03-31T14:05:40.534Z,18.87
2019-03-31T14:08:24.659Z,18.83
2019-03-31T14:10:41.166Z,17.27
2019-03-31T14:13:10.735Z,17.13
2019-03-31T14:15:40.498Z,16.00
2019-03-31T14:18:09.718Z,15.30
2019-03-31T14:20:39.138Z,14.97
2019-03-31T14:23:08.303Z,14.30
2019-03-31T14:25:37.795Z,12.33
2019-03-31T14:28:07.242Z,12.27
2019-03-31T14:30:36.491Z,11.53
2019-03-31T14:33:05.905Z,9.83
2019-03-31T14:35:37.941Z,9.40
2019-03-31T14:38:06.515Z,9.33
2019-03-31T14:40:36.127Z,9.53
2019-03-31T14:43:05.647Z,8.83
2019-03-31T14:45:35.849Z,9.73
2019-03-31T14:48:05.528Z,8.97
2019-03-31T14:50:36.887Z,9.43
2019-03-31T14:53:06.774Z,9.73
2019-03-31T14:55:36.430Z,9.77
2019-03-31T14:58:08.075Z,9.73
2019-03-31T15:00:38.196Z,10.37
2019-03-31T15:03:07.551Z,8.70
2019-03-31T15:05:38.138Z,9.33
2019-03-31T15:08:10.310Z,9.27
2019-03-31T15:10:39.589Z,8.33
2019-03-31T15:13:08.990Z,8.30
2019-03-31T15:15:38.159Z,8.47
2019-03-31T15:18:07.639Z,7.80
2019-03-31T15:20:37.102Z,7.90
2019-03-31T15:23:06.329Z,7.93
2019-03-31T15:25:35.824Z,7.23
2019-03-31T15:28:05.202Z,7.23
2019-03-31T15:30:35.552Z,6.90
2019-03-31T15:33:05.065Z,7.23
2019-03-31T15:35:37.455Z,7.03
2019-03-31T15:38:05.772Z,6.07
2019-03-31T15:40:35.218Z,5.93
2019-03-31T15:43:04.510Z,7.50
2019-03-31T15:45:33.788Z,6.23
2019-03-31T15:48:02.976Z,5.97
2019-03-31T15:50:32.555Z,5.90
2019-03-31T15:53:01.969Z,6.47
2019-03-31T15:55:31.503Z,5.17
2019-03-31T15:58:00.906Z,5.10
2019-03-31T16:00:31.302Z,5.33
2019-03-31T16:03:00.478Z,4.50
2019-03-31T16:05:29.865Z,4.80
2019-03-31T16:07:59.112Z,4.47
2019-03-31T16:10:28.357Z,4.77
2019-03-31T16:12:57.519Z,4.23
2019-03-31T16:15:26.665Z,4.10
2019-03-31T16:17:55.871Z,3.77
2019-03-31T16:20:25.025Z,4.00
2019-03-31T16:22:54.183Z,3.77
2019-03-31T16:25:33.772Z,3.73
2019-03-31T16:28:02.997Z,4.37
2019-03-31T16:30:33.069Z,4.10
2019-03-31T16:33:02.303Z,3.77
2019-03-31T16:35:31.528Z,4.50
2019-03-31T16:38:00.950Z,4.50
2019-03-31T16:40:30.753Z,4.43
2019-03-31T16:42:59.986Z,3.80
2019-03-31T16:45:29.215Z,4.03
2019-03-31T16:47:58.453Z,3.90
2019-03-31T16:50:27.689Z,2.90
2019-03-31T16:52:56.861Z,3.57
2019-03-31T16:55:26.119Z,3.90
2019-03-31T16:57:55.269Z,4.43
2019-03-31T17:00:24.425Z,3.80
2019-03-31T17:02:53.678Z,3.80
2019-03-31T17:05:22.850Z,4.33
2019-03-31T17:07:52.015Z,3.53
2019-03-31T17:10:21.307Z,3.53
2019-03-31T17:12:50.459Z,3.33
2019-03-31T17:15:19.620Z,3.33
2019-03-31T17:17:48.818Z,3.33
2019-03-31T17:20:18.042Z,3.57
2019-03-31T17:22:47.215Z,3.97
2019-03-31T17:25:17.750Z,4.20
2019-03-31T17:27:46.903Z,4.70
2019-03-31T17:30:16.699Z,4.90
2019-03-31T17:32:45.908Z,4.57
2019-03-31T17:35:15.058Z,3.77
2019-03-31T17:37:44.205Z,4.40
2019-03-31T17:40:13.594Z,4.20
2019-03-31T17:42:42.841Z,4.53
2019-03-31T17:45:13.287Z,5.00
2019-03-31T17:47:42.554Z,4.70
2019-03-31T17:50:12.088Z,4.37
2019-03-31T17:52:41.313Z,4.67
2019-03-31T17:55:10.632Z,4.70
2019-03-31T17:57:42.417Z,4.43
2019-03-31T18:00:11.346Z,4.47
2019-03-31T18:02:41.842Z,3.73
2019-03-31T18:05:11.391Z,3.80
2019-03-31T18:07:40.536Z,3.40
2019-03-31T18:10:20.646Z,3.67
2019-03-31T18:12:40.961Z,3.63
2019-03-31T18:15:11.253Z,3.40
2019-03-31T18:17:40.441Z,3.30
2019-03-31T18:20:10.076Z,3.20
2019-03-31T18:22:39.282Z,3.60
2019-03-31T18:25:08.716Z,3.13
2019-03-31T18:27:37.877Z,3.20
2019-03-31T18:30:07.662Z,2.77
2019-03-31T18:32:36.906Z,3.40
2019-03-31T18:35:09.771Z,3.63
2019-03-31T18:37:39.245Z,3.60
2019-03-31T18:40:11.361Z,3.57
2019-03-31T18:42:40.513Z,3.40
2019-03-31T18:45:09.767Z,3.60
2019-03-31T18:47:38.999Z,3.37
2019-03-31T18:50:08.384Z,4.17
2019-03-31T18:52:37.612Z,3.87
2019-03-31T18:55:25.415Z,3.83
2019-03-31T18:57:56.429Z,3.73
2019-03-31T19:00:39.277Z,3.77
2019-03-31T19:03:26.373Z,3.13
2019-03-31T19:06:03.148Z,3.30
2019-03-31T19:08:34.227Z,3.80
2019-03-31T19:11:08.016Z,3.27
2019-03-31T19:13:55.915Z,2.90
2019-03-31T19:16:42.258Z,4.10
2019-03-31T19:19:18.952Z,3.90
2019-03-31T19:21:58.881Z,3.93
2019-03-31T19:24:32.890Z,3.50
2019-03-31T19:27:15.756Z,3.30
2019-03-31T19:29:46.826Z,3.17
2019-03-31T19:32:35.077Z,3.70
2019-03-31T19:35:07.555Z,3.10
2019-03-31T19:37:57.295Z,3.43
2019-03-31T19:40:28.266Z,3.00
2019-03-31T19:43:07.894Z,2.57
2019-03-31T19:45:47.845Z,3.23
2019-03-31T19:48:31.990Z,2.63
2019-03-31T19:51:02.791Z,2.97
2019-03-31T19:53:33.889Z,3.20
2019-03-31T19:56:07.869Z,4.13
2019-03-31T19:58:39.918Z,4.07
2019-03-31T20:01:27.266Z,4.20
2019-03-31T20:04:14.429Z,3.90
2019-03-31T20:06:50.964Z,3.93
2019-03-31T20:09:30.425Z,3.20
2019-03-31T20:12:07.571Z,3.30
2019-03-31T20:14:41.246Z,3.00
2019-03-31T20:17:21.408Z,2.70
2019-03-31T20:20:08.632Z,2.80
2019-03-31T20:22:47.671Z,2.60
2019-03-31T20:25:32.647Z,2.63
2019-03-31T20:28:12.484Z,2.80
2019-03-31T20:30:48.961Z,2.57
2019-03-31T20:33:31.586Z,2.73
2019-03-31T20:36:02.442Z,2.63
2019-03-31T20:38:48.315Z,2.23
2019-03-31T20:41:24.852Z,2.50
2019-03-31T20:43:57.407Z,2.13
2019-03-31T20:46:28.712Z,2.20
2019-03-31T20:48:57.871Z,2.20
2019-03-31T20:51:27.387Z,2.60
2019-03-31T20:53:56.901Z,2.43
2019-03-31T20:56:26.413Z,3.33
2019-03-31T20:58:55.881Z,2.90
2019-03-31T21:01:25.349Z,2.27
2019-03-31T21:03:57.725Z,2.90
2019-03-31T21:06:28.102Z,2.17
2019-03-31T21:08:57.552Z,2.97
2019-03-31T21:11:27.884Z,2.73
2019-03-31T21:13:57.379Z,2.60
2019-03-31T21:16:26.608Z,2.90
2019-03-31T21:18:55.980Z,2.97
2019-03-31T21:21:26.343Z,2.93
2019-03-31T21:23:55.799Z,2.80
2019-03-31T21:26:26.156Z,2.70
2019-03-31T21:28:55.768Z,2.63
2019-03-31T21:31:26.026Z,3.90
2019-03-31T21:33:55.465Z,3.20
2019-03-31T21:36:25.834Z,2.90
2019-03-31T21:38:55.300Z,2.80
2019-03-31T21:41:24.552Z,2.90
2019-03-31T21:43:53.956Z,3.40
2019-03-31T21:46:23.434Z,3.67
2019-03-31T21:48:58.661Z,3.00
2019-03-31T21:51:28.206Z,3.77
2019-03-31T21:53:57.671Z,3.33
2019-03-31T21:56:26.814Z,4.03
2019-03-31T21:58:56.314Z,3.70
2019-03-31T22:01:25.830Z,3.30
2019-03-31T22:03:55.283Z,3.57
2019-03-31T22:06:24.827Z,3.40
2019-03-31T22:08:53.977Z,3.40
2019-03-31T22:11:23.387Z,3.30
2019-03-31T22:13:52.584Z,3.60
2019-03-31T22:16:21.984Z,3.87
2019-03-31T22:18:51.231Z,3.87
2019-03-31T22:21:20.618Z,3.97
2019-03-31T22:23:57.687Z,4.03
2019-03-31T22:26:21.229Z,3.57
2019-03-31T22:28:50.649Z,3.93
2019-03-31T22:31:20.242Z,3.83
2019-03-31T22:33:49.390Z,4.30
2019-03-31T22:36:22.492Z,4.20
2019-03-31T22:38:53.281Z,5.13
2019-03-31T22:41:22.582Z,4.30
2019-03-31T22:43:53.200Z,4.03
2019-03-31T22:46:23.077Z,3.90
2019-03-31T22:48:52.523Z,4.47
2019-03-31T22:51:22.880Z,3.87
2019-03-31T22:53:52.495Z,4.63
2019-03-31T22:56:21.850Z,4.90
2019-03-31T22:58:51.055Z,4.20
2019-03-31T23:01:20.843Z,4.73
2019-03-31T23:03:50.005Z,4.77
2019-03-31T23:06:19.508Z,3.77
2019-03-31T23:08:49.023Z,4.27
2019-03-31T23:11:18.561Z,3.70
2019-03-31T23:13:48.018Z,3.43
2019-03-31T23:16:17.502Z,4.23
2019-03-31T23:18:47.067Z,3.23
2019-03-31T23:21:16.544Z,3.50
2019-03-31T23:23:46.002Z,3.70
2019-03-31T23:26:15.424Z,4.27
2019-03-31T23:28:47.224Z,3.93
2019-03-31T23:31:17.374Z,4.17
2019-03-31T23:33:46.789Z,3.70
2019-03-31T23:36:16.028Z,4.20
2019-03-31T23:38:45.632Z,3.77
2019-03-31T23:41:15.010Z,3.63
2019-03-31T23:43:44.538Z,3.80
2019-03-31T23:46:14.013Z,3.60
2019-03-31T23:48:43.571Z,4.00
2019-03-31T23:51:13.067Z,3.70
2019-03-31T23:53:42.533Z,4.53
2019-03-31T23:56:12.916Z,4.60
2019-03-31T23:58:42.384Z,4.63
